sensor_id;sensor_type;location;lat;lon;timestamp;temperature;humidity
5138;DHT22;53959;53.626;11.410;2022-11-20T00:02:24;1.30;99.90
5138;DHT22;53959;53.626;11.410;2022-11-20T00:04:49;1.30;99.90
5138;DHT22;53959;53.626;11.410;2022-11-20T00:07:15;1.20;99.90
5138;DHT22;53959;53.626;11.410;2022-11-20T00:09:40;1.20;99.90
5138;DHT22;53959;53.626;11.410;2022-11-20T00:12:06;1.20;99.90
5138;DHT22;53959;53.626;11.410;2022-11-20T00:14:32;1.20;99.90
5138;DHT22;53959;53.626;11.410;2022-11-20T00:16:57;1.20;99.90
5138;DHT22;53959;53.626;11.410;2022-11-20T00:19:23;1.10;99.90
5138;DHT22;53959;53.626;11.410;2022-11-20T00:21:48;1.20;99.90
5138;DHT22;53959;53.626;11.410;2022-11-20T00:24:16;1.20;99.90
5138;DHT22;53959;53.626;11.410;2022-11-20T00:26:42;1.20;99.90
5138;DHT22;53959;53.626;11.410;2022-11-20T00:29:09;1.30;99.90
5138;DHT22;53959;53.626;11.410;2022-11-20T00:31:35;1.10;99.90
5138;DHT22;53959;53.626;11.410;2022-11-20T00:34:01;1.20;99.90
5138;DHT22;53959;53.626;11.410;2022-11-20T00:36:28;1.10;99.90
5138;DHT22;53959;53.626;11.410;2022-11-20T00:38:56;1.20;99.90
5138;DHT22;53959;53.626;11.410;2022-11-20T00:41:23;1.20;99.90
5138;DHT22;53959;53.626;11.410;2022-11-20T00:43:50;1.20;99.90
5138;DHT22;53959;53.626;11.410;2022-11-20T00:46:18;1.30;99.90
5138;DHT22;53959;53.626;11.410;2022-11-20T00:48:45;1.20;99.90
5138;DHT22;53959;53.626;11.410;2022-11-20T00:51:12;1.30;99.90
5138;DHT22;53959;53.626;11.410;2022-11-20T00:53:38;1.30;99.90
5138;DHT22;53959;53.626;11.410;2022-11-20T00:56:10;1.40;99.90
5138;DHT22;53959;53.626;11.410;2022-11-20T00:58:37;1.30;99.90
5138;DHT22;53959;53.626;11.410;2022-11-20T01:01:18;1.30;99.90
5138;DHT22;53959;53.626;11.410;2022-11-20T01:03:49;1.40;99.90
5138;DHT22;53959;53.626;11.410;2022-11-20T01:08:49;1.40;99.90
5138;DHT22;53959;53.626;11.410;2022-11-20T01:11:17;1.30;99.90
5138;DHT22;53959;53.626;11.410;2022-11-20T01:13:45;1.40;99.90
5138;DHT22;53959;53.626;11.410;2022-11-20T01:16:19;1.40;99.90
5138;DHT22;53959;53.626;11.410;2022-11-20T01:18:47;1.50;99.90
5138;DHT22;53959;53.626;11.410;2022-11-20T01:21:17;1.50;99.90
5138;DHT22;53959;53.626;11.410;2022-11-20T01:23:44;1.50;99.90
5138;DHT22;53959;53.626;11.410;2022-11-20T01:26:12;1.60;99.90
5138;DHT22;53959;53.626;11.410;2022-11-20T01:28:39;1.40;99.90
5138;DHT22;53959;53.626;11.410;2022-11-20T01:31:22;1.50;99.90
5138;DHT22;53959;53.626;11.410;2022-11-20T01:33:51;1.40;99.90
5138;DHT22;53959;53.626;11.410;2022-11-20T01:36:18;1.50;99.90
5138;DHT22;53959;53.626;11.410;2022-11-20T01:38:44;1.60;99.90
5138;DHT22;53959;53.626;11.410;2022-11-20T01:41:11;1.60;99.90
5138;DHT22;53959;53.626;11.410;2022-11-20T01:43:57;1.60;99.90
5138;DHT22;53959;53.626;11.410;2022-11-20T01:46:23;1.70;99.90
5138;DHT22;53959;53.626;11.410;2022-11-20T01:49:01;1.50;99.90
5138;DHT22;53959;53.626;11.410;2022-11-20T01:51:52;1.40;99.90
5138;DHT22;53959;53.626;11.410;2022-11-20T01:54:30;1.40;99.90
5138;DHT22;53959;53.626;11.410;2022-11-20T01:56:59;1.20;99.90
5138;DHT22;53959;53.626;11.410;2022-11-20T01:59:26;1.30;99.90
5138;DHT22;53959;53.626;11.410;2022-11-20T02:01:54;1.30;99.90
5138;DHT22;53959;53.626;11.410;2022-11-20T02:04:20;1.30;99.90
5138;DHT22;53959;53.626;11.410;2022-11-20T02:06:49;1.20;99.90
5138;DHT22;53959;53.626;11.410;2022-11-20T02:09:17;1.20;99.90
5138;DHT22;53959;53.626;11.410;2022-11-20T02:11:42;1.40;99.90
5138;DHT22;53959;53.626;11.410;2022-11-20T02:14:09;1.30;99.90
5138;DHT22;53959;53.626;11.410;2022-11-20T02:16:37;1.30;99.90
5138;DHT22;53959;53.626;11.410;2022-11-20T02:19:07;1.20;99.90
5138;DHT22;53959;53.626;11.410;2022-11-20T02:21:47;1.20;99.90
5138;DHT22;53959;53.626;11.410;2022-11-20T02:24:17;1.20;99.90
5138;DHT22;53959;53.626;11.410;2022-11-20T02:26:49;1.10;99.90
5138;DHT22;53959;53.626;11.410;2022-11-20T02:29:19;1.20;99.90
5138;DHT22;53959;53.626;11.410;2022-11-20T02:31:48;1.20;99.90
5138;DHT22;53959;53.626;11.410;2022-11-20T02:34:14;1.10;99.90
5138;DHT22;53959;53.626;11.410;2022-11-20T02:36:40;1.20;99.90
5138;DHT22;53959;53.626;11.410;2022-11-20T02:39:07;1.20;99.90
5138;DHT22;53959;53.626;11.410;2022-11-20T02:41:36;1.30;99.90
5138;DHT22;53959;53.626;11.410;2022-11-20T02:44:03;1.20;99.90
5138;DHT22;53959;53.626;11.410;2022-11-20T02:46:29;1.20;99.90
5138;DHT22;53959;53.626;11.410;2022-11-20T02:48:55;1.30;99.90
5138;DHT22;53959;53.626;11.410;2022-11-20T02:51:21;1.30;99.90
5138;DHT22;53959;53.626;11.410;2022-11-20T02:53:47;1.30;99.90
5138;DHT22;53959;53.626;11.410;2022-11-20T02:56:12;1.40;99.90
5138;DHT22;53959;53.626;11.410;2022-11-20T02:58:38;1.50;99.90
5138;DHT22;53959;53.626;11.410;2022-11-20T03:01:03;1.40;99.90
5138;DHT22;53959;53.626;11.410;2022-11-20T03:03:29;1.40;99.90
5138;DHT22;53959;53.626;11.410;2022-11-20T03:05:54;1.40;99.90
5138;DHT22;53959;53.626;11.410;2022-11-20T03:08:20;1.40;99.90
5138;DHT22;53959;53.626;11.410;2022-11-20T03:10:45;1.30;99.90
5138;DHT22;53959;53.626;11.410;2022-11-20T03:13:11;1.40;99.90
5138;DHT22;53959;53.626;11.410;2022-11-20T03:15:37;1.50;99.90
5138;DHT22;53959;53.626;11.410;2022-11-20T03:18:03;1.30;99.90
5138;DHT22;53959;53.626;11.410;2022-11-20T03:20:29;1.30;99.90
5138;DHT22;53959;53.626;11.410;2022-11-20T03:22:54;1.40;99.90
5138;DHT22;53959;53.626;11.410;2022-11-20T03:25:20;1.40;99.90
5138;DHT22;53959;53.626;11.410;2022-11-20T03:27:46;1.40;99.90
5138;DHT22;53959;53.626;11.410;2022-11-20T03:30:12;1.40;99.90
5138;DHT22;53959;53.626;11.410;2022-11-20T03:32:37;1.40;99.90
5138;DHT22;53959;53.626;11.410;2022-11-20T03:35:03;1.40;99.90
5138;DHT22;53959;53.626;11.410;2022-11-20T03:37:29;1.40;99.90
5138;DHT22;53959;53.626;11.410;2022-11-20T03:39:54;1.40;99.90
5138;DHT22;53959;53.626;11.410;2022-11-20T03:42:20;1.40;99.90
5138;DHT22;53959;53.626;11.410;2022-11-20T03:45:04;1.30;99.90
5138;DHT22;53959;53.626;11.410;2022-11-20T03:47:30;1.40;99.90
5138;DHT22;53959;53.626;11.410;2022-11-20T03:49:55;1.50;99.90
5138;DHT22;53959;53.626;11.410;2022-11-20T03:52:21;1.40;99.90
5138;DHT22;53959;53.626;11.410;2022-11-20T03:54:46;1.40;99.90
5138;DHT22;53959;53.626;11.410;2022-11-20T03:57:12;1.30;99.90
5138;DHT22;53959;53.626;11.410;2022-11-20T03:59:37;1.40;99.90
5138;DHT22;53959;53.626;11.410;2022-11-20T04:02:03;1.40;99.90
5138;DHT22;53959;53.626;11.410;2022-11-20T04:04:28;1.30;99.90
5138;DHT22;53959;53.626;11.410;2022-11-20T04:06:54;1.40;99.90
5138;DHT22;53959;53.626;11.410;2022-11-20T04:09:19;1.30;99.90
5138;DHT22;53959;53.626;11.410;2022-11-20T04:11:45;1.30;99.90
5138;DHT22;53959;53.626;11.410;2022-11-20T04:14:15;1.40;99.90
5138;DHT22;53959;53.626;11.410;2022-11-20T04:16:41;1.50;99.90
5138;DHT22;53959;53.626;11.410;2022-11-20T04:19:11;1.40;99.90
5138;DHT22;53959;53.626;11.410;2022-11-20T04:21:37;1.30;99.90
5138;DHT22;53959;53.626;11.410;2022-11-20T04:24:03;1.40;99.90
5138;DHT22;53959;53.626;11.410;2022-11-20T04:26:29;1.40;99.90
5138;DHT22;53959;53.626;11.410;2022-11-20T04:28:56;1.40;99.90
5138;DHT22;53959;53.626;11.410;2022-11-20T04:31:24;1.30;99.90
5138;DHT22;53959;53.626;11.410;2022-11-20T04:33:49;1.20;99.90
5138;DHT22;53959;53.626;11.410;2022-11-20T04:36:17;1.40;99.90
5138;DHT22;53959;53.626;11.410;2022-11-20T04:38:43;1.50;99.90
5138;DHT22;53959;53.626;11.410;2022-11-20T04:41:16;1.20;99.90
5138;DHT22;53959;53.626;11.410;2022-11-20T04:43:45;1.30;99.90
5138;DHT22;53959;53.626;11.410;2022-11-20T04:46:11;1.10;99.90
5138;DHT22;53959;53.626;11.410;2022-11-20T04:48:36;1.30;99.90
5138;DHT22;53959;53.626;11.410;2022-11-20T04:51:05;1.30;99.90
5138;DHT22;53959;53.626;11.410;2022-11-20T04:53:31;1.30;99.90
5138;DHT22;53959;53.626;11.410;2022-11-20T04:56:00;1.20;99.90
5138;DHT22;53959;53.626;11.410;2022-11-20T04:58:26;1.30;99.90
5138;DHT22;53959;53.626;11.410;2022-11-20T05:00:52;1.20;99.90
5138;DHT22;53959;53.626;11.410;2022-11-20T05:03:17;1.20;99.90
5138;DHT22;53959;53.626;11.410;2022-11-20T05:05:43;1.30;99.90
5138;DHT22;53959;53.626;11.410;2022-11-20T05:08:08;1.30;99.90
5138;DHT22;53959;53.626;11.410;2022-11-20T05:10:34;1.30;99.90
5138;DHT22;53959;53.626;11.410;2022-11-20T05:12:59;1.30;99.90
5138;DHT22;53959;53.626;11.410;2022-11-20T05:15:25;1.20;99.90
5138;DHT22;53959;53.626;11.410;2022-11-20T05:17:51;1.30;99.90
5138;DHT22;53959;53.626;11.410;2022-11-20T05:20:17;1.20;99.90
5138;DHT22;53959;53.626;11.410;2022-11-20T05:22:44;1.20;99.90
5138;DHT22;53959;53.626;11.410;2022-11-20T05:25:10;1.20;99.90
5138;DHT22;53959;53.626;11.410;2022-11-20T05:27:36;1.20;99.90
5138;DHT22;53959;53.626;11.410;2022-11-20T05:30:03;1.10;99.90
5138;DHT22;53959;53.626;11.410;2022-11-20T05:32:28;1.10;99.90
5138;DHT22;53959;53.626;11.410;2022-11-20T05:34:54;1.20;99.90
5138;DHT22;53959;53.626;11.410;2022-11-20T05:37:19;1.10;99.90
5138;DHT22;53959;53.626;11.410;2022-11-20T05:39:45;1.10;99.90
5138;DHT22;53959;53.626;11.410;2022-11-20T05:42:10;1.10;99.90
5138;DHT22;53959;53.626;11.410;2022-11-20T05:44:55;1.10;99.90
5138;DHT22;53959;53.626;11.410;2022-11-20T05:47:21;1.10;99.90
5138;DHT22;53959;53.626;11.410;2022-11-20T05:49:46;1.20;99.90
5138;DHT22;53959;53.626;11.410;2022-11-20T05:52:12;1.10;99.90
5138;DHT22;53959;53.626;11.410;2022-11-20T05:54:37;1.00;99.90
5138;DHT22;53959;53.626;11.410;2022-11-20T05:57:03;1.00;99.90
5138;DHT22;53959;53.626;11.410;2022-11-20T05:59:29;1.00;99.90
5138;DHT22;53959;53.626;11.410;2022-11-20T06:01:54;0.90;99.90
5138;DHT22;53959;53.626;11.410;2022-11-20T06:04:20;0.90;99.90
5138;DHT22;53959;53.626;11.410;2022-11-20T06:06:45;0.90;99.90
5138;DHT22;53959;53.626;11.410;2022-11-20T06:09:11;0.90;99.90
5138;DHT22;53959;53.626;11.410;2022-11-20T06:11:36;0.80;99.90
5138;DHT22;53959;53.626;11.410;2022-11-20T06:14:02;0.80;99.90
5138;DHT22;53959;53.626;11.410;2022-11-20T06:16:27;0.90;99.90
5138;DHT22;53959;53.626;11.410;2022-11-20T06:18:53;0.80;99.90
5138;DHT22;53959;53.626;11.410;2022-11-20T06:21:21;0.80;99.90
5138;DHT22;53959;53.626;11.410;2022-11-20T06:23:48;0.80;99.90
5138;DHT22;53959;53.626;11.410;2022-11-20T06:26:19;0.80;99.90
5138;DHT22;53959;53.626;11.410;2022-11-20T06:28:45;0.80;99.90
5138;DHT22;53959;53.626;11.410;2022-11-20T06:31:13;0.80;99.90
5138;DHT22;53959;53.626;11.410;2022-11-20T06:33:39;0.70;99.90
5138;DHT22;53959;53.626;11.410;2022-11-20T06:36:05;0.70;99.90
5138;DHT22;53959;53.626;11.410;2022-11-20T06:38:31;0.70;99.90
5138;DHT22;53959;53.626;11.410;2022-11-20T06:40:56;0.70;99.90
5138;DHT22;53959;53.626;11.410;2022-11-20T06:43:23;0.80;99.90
5138;DHT22;53959;53.626;11.410;2022-11-20T06:45:55;0.80;99.90
5138;DHT22;53959;53.626;11.410;2022-11-20T06:48:22;0.80;99.90
5138;DHT22;53959;53.626;11.410;2022-11-20T06:50:48;0.80;99.90
5138;DHT22;53959;53.626;11.410;2022-11-20T06:53:14;0.80;99.90
5138;DHT22;53959;53.626;11.410;2022-11-20T06:55:46;0.80;99.90
5138;DHT22;53959;53.626;11.410;2022-11-20T06:58:13;0.80;99.90
5138;DHT22;53959;53.626;11.410;2022-11-20T07:00:39;0.80;99.90
5138;DHT22;53959;53.626;11.410;2022-11-20T07:03:06;0.70;99.90
5138;DHT22;53959;53.626;11.410;2022-11-20T07:05:32;0.80;99.90
5138;DHT22;53959;53.626;11.410;2022-11-20T07:07:57;0.80;99.90
5138;DHT22;53959;53.626;11.410;2022-11-20T07:10:23;0.80;99.90
5138;DHT22;53959;53.626;11.410;2022-11-20T07:12:50;0.80;99.90
5138;DHT22;53959;53.626;11.410;2022-11-20T07:15:16;0.80;99.90
5138;DHT22;53959;53.626;11.410;2022-11-20T07:17:42;0.90;99.90
5138;DHT22;53959;53.626;11.410;2022-11-20T07:20:08;0.80;99.90
5138;DHT22;53959;53.626;11.410;2022-11-20T07:22:33;0.90;99.90
5138;DHT22;53959;53.626;11.410;2022-11-20T07:24:59;0.90;99.90
5138;DHT22;53959;53.626;11.410;2022-11-20T07:27:25;0.90;99.90
5138;DHT22;53959;53.626;11.410;2022-11-20T07:29:50;0.80;99.90
5138;DHT22;53959;53.626;11.410;2022-11-20T07:32:16;0.90;99.90
5138;DHT22;53959;53.626;11.410;2022-11-20T07:34:41;0.90;99.90
5138;DHT22;53959;53.626;11.410;2022-11-20T07:37:07;0.90;99.90
5138;DHT22;53959;53.626;11.410;2022-11-20T07:39:32;0.90;99.90
5138;DHT22;53959;53.626;11.410;2022-11-20T07:41:58;1.00;99.90
5138;DHT22;53959;53.626;11.410;2022-11-20T07:44:23;0.90;99.90
5138;DHT22;53959;53.626;11.410;2022-11-20T07:46:49;0.90;99.90
5138;DHT22;53959;53.626;11.410;2022-11-20T07:49:14;1.00;99.90
5138;DHT22;53959;53.626;11.410;2022-11-20T07:51:39;0.90;99.90
5138;DHT22;53959;53.626;11.410;2022-11-20T07:54:05;1.00;99.90
5138;DHT22;53959;53.626;11.410;2022-11-20T07:56:30;0.90;99.90
5138;DHT22;53959;53.626;11.410;2022-11-20T07:58:56;0.90;99.90
5138;DHT22;53959;53.626;11.410;2022-11-20T08:01:21;0.80;99.90
5138;DHT22;53959;53.626;11.410;2022-11-20T08:03:47;0.80;99.90
5138;DHT22;53959;53.626;11.410;2022-11-20T08:06:13;0.80;99.90
5138;DHT22;53959;53.626;11.410;2022-11-20T08:08:40;0.90;99.90
5138;DHT22;53959;53.626;11.410;2022-11-20T08:11:06;0.90;99.90
5138;DHT22;53959;53.626;11.410;2022-11-20T08:13:49;0.90;99.90
5138;DHT22;53959;53.626;11.410;2022-11-20T08:16:34;0.80;99.90
5138;DHT22;53959;53.626;11.410;2022-11-20T08:18:59;0.80;99.90
5138;DHT22;53959;53.626;11.410;2022-11-20T08:21:25;0.90;99.90
5138;DHT22;53959;53.626;11.410;2022-11-20T08:23:50;0.70;99.90
5138;DHT22;53959;53.626;11.410;2022-11-20T08:26:16;0.80;99.90
5138;DHT22;53959;53.626;11.410;2022-11-20T08:28:41;0.70;99.90
5138;DHT22;53959;53.626;11.410;2022-11-20T08:31:07;0.80;99.90
5138;DHT22;53959;53.626;11.410;2022-11-20T08:33:33;0.80;99.90
5138;DHT22;53959;53.626;11.410;2022-11-20T08:36:02;0.90;99.90
5138;DHT22;53959;53.626;11.410;2022-11-20T08:38:28;0.80;99.90
5138;DHT22;53959;53.626;11.410;2022-11-20T08:41:02;0.80;99.90
5138;DHT22;53959;53.626;11.410;2022-11-20T08:43:46;0.90;99.90
5138;DHT22;53959;53.626;11.410;2022-11-20T08:46:12;0.90;99.90
5138;DHT22;53959;53.626;11.410;2022-11-20T08:48:38;1.00;99.90
5138;DHT22;53959;53.626;11.410;2022-11-20T08:51:03;1.00;99.90
5138;DHT22;53959;53.626;11.410;2022-11-20T08:53:29;1.00;99.90
5138;DHT22;53959;53.626;11.410;2022-11-20T08:55:56;1.00;99.90
5138;DHT22;53959;53.626;11.410;2022-11-20T08:58:22;1.00;99.90
5138;DHT22;53959;53.626;11.410;2022-11-20T09:00:47;1.00;99.90
5138;DHT22;53959;53.626;11.410;2022-11-20T09:03:13;1.10;99.90
5138;DHT22;53959;53.626;11.410;2022-11-20T09:05:39;1.10;99.90
5138;DHT22;53959;53.626;11.410;2022-11-20T09:08:04;1.10;99.90
5138;DHT22;53959;53.626;11.410;2022-11-20T09:10:30;1.10;99.90
5138;DHT22;53959;53.626;11.410;2022-11-20T09:12:56;1.10;99.90
5138;DHT22;53959;53.626;11.410;2022-11-20T09:15:22;1.00;99.90
5138;DHT22;53959;53.626;11.410;2022-11-20T09:17:55;1.00;99.90
5138;DHT22;53959;53.626;11.410;2022-11-20T09:20:21;1.00;99.90
5138;DHT22;53959;53.626;11.410;2022-11-20T09:22:47;1.20;99.90
5138;DHT22;53959;53.626;11.410;2022-11-20T09:25:13;1.00;99.90
5138;DHT22;53959;53.626;11.410;2022-11-20T09:27:38;1.20;99.90
5138;DHT22;53959;53.626;11.410;2022-11-20T09:30:04;1.10;99.90
5138;DHT22;53959;53.626;11.410;2022-11-20T09:32:30;1.20;99.90
5138;DHT22;53959;53.626;11.410;2022-11-20T09:34:55;1.20;99.90
5138;DHT22;53959;53.626;11.410;2022-11-20T09:37:21;1.20;99.90
5138;DHT22;53959;53.626;11.410;2022-11-20T09:39:47;1.10;99.90
5138;DHT22;53959;53.626;11.410;2022-11-20T09:42:25;1.00;99.90
5138;DHT22;53959;53.626;11.410;2022-11-20T09:45:21;1.00;99.90
5138;DHT22;53959;53.626;11.410;2022-11-20T09:48:25;0.90;99.90
5138;DHT22;53959;53.626;11.410;2022-11-20T09:51:56;0.80;99.90
5138;DHT22;53959;53.626;11.410;2022-11-20T09:56:39;0.90;99.90
5138;DHT22;53959;53.626;11.410;2022-11-20T09:59:08;1.00;99.90
5138;DHT22;53959;53.626;11.410;2022-11-20T10:01:39;1.00;99.90
5138;DHT22;53959;53.626;11.410;2022-11-20T10:04:27;1.10;99.90
5138;DHT22;53959;53.626;11.410;2022-11-20T10:07:11;1.00;99.90
5138;DHT22;53959;53.626;11.410;2022-11-20T10:09:40;1.10;99.90
5138;DHT22;53959;53.626;11.410;2022-11-20T10:15:10;1.00;99.90
5138;DHT22;53959;53.626;11.410;2022-11-20T10:25:52;1.30;99.90
5138;DHT22;53959;53.626;11.410;2022-11-20T10:28:47;1.30;99.90
5138;DHT22;53959;53.626;11.410;2022-11-20T10:31:28;1.30;99.90
5138;DHT22;53959;53.626;11.410;2022-11-20T10:33:58;1.30;99.90
5138;DHT22;53959;53.626;11.410;2022-11-20T10:36:28;1.30;99.90
5138;DHT22;53959;53.626;11.410;2022-11-20T10:41:50;1.40;99.90
5138;DHT22;53959;53.626;11.410;2022-11-20T10:44:21;1.40;99.90
5138;DHT22;53959;53.626;11.410;2022-11-20T10:47:15;1.30;99.90
5138;DHT22;53959;53.626;11.410;2022-11-20T10:49:42;1.50;99.90
5138;DHT22;53959;53.626;11.410;2022-11-20T11:00:27;1.80;99.90
5138;DHT22;53959;53.626;11.410;2022-11-20T11:02:53;1.80;99.90
5138;DHT22;53959;53.626;11.410;2022-11-20T11:07:47;1.70;99.90
5138;DHT22;53959;53.626;11.410;2022-11-20T11:10:18;1.60;99.90
5138;DHT22;53959;53.626;11.410;2022-11-20T11:12:46;1.60;99.90
5138;DHT22;53959;53.626;11.410;2022-11-20T11:15:26;1.80;99.90
5138;DHT22;53959;53.626;11.410;2022-11-20T11:17:52;1.80;99.90
5138;DHT22;53959;53.626;11.410;2022-11-20T11:20:23;1.90;99.90
5138;DHT22;53959;53.626;11.410;2022-11-20T11:22:52;1.70;99.90
5138;DHT22;53959;53.626;11.410;2022-11-20T11:25:37;1.90;99.90
5138;DHT22;53959;53.626;11.410;2022-11-20T11:30:44;1.80;99.90
5138;DHT22;53959;53.626;11.410;2022-11-20T11:33:17;1.70;99.90
5138;DHT22;53959;53.626;11.410;2022-11-20T11:35:45;1.70;99.90
5138;DHT22;53959;53.626;11.410;2022-11-20T11:38:15;1.80;99.90
5138;DHT22;53959;53.626;11.410;2022-11-20T11:40:41;1.80;99.90
5138;DHT22;53959;53.626;11.410;2022-11-20T11:43:17;1.80;99.90
5138;DHT22;53959;53.626;11.410;2022-11-20T11:46:05;1.70;99.90
5138;DHT22;53959;53.626;11.410;2022-11-20T11:48:40;1.80;99.90
5138;DHT22;53959;53.626;11.410;2022-11-20T11:51:08;1.70;99.90
5138;DHT22;53959;53.626;11.410;2022-11-20T11:53:36;1.80;99.90
5138;DHT22;53959;53.626;11.410;2022-11-20T11:56:09;1.80;99.90
5138;DHT22;53959;53.626;11.410;2022-11-20T11:58:46;1.80;99.90
5138;DHT22;53959;53.626;11.410;2022-11-20T12:01:32;2.00;99.90
5138;DHT22;53959;53.626;11.410;2022-11-20T12:04:04;1.70;99.90
5138;DHT22;53959;53.626;11.410;2022-11-20T12:06:32;2.00;99.90
5138;DHT22;53959;53.626;11.410;2022-11-20T12:09:03;2.10;99.90
5138;DHT22;53959;53.626;11.410;2022-11-20T12:11:54;2.20;99.90
5138;DHT22;53959;53.626;11.410;2022-11-20T12:14:35;2.10;99.90
5138;DHT22;53959;53.626;11.410;2022-11-20T12:17:02;2.10;99.90
5138;DHT22;53959;53.626;11.410;2022-11-20T12:19:33;2.00;99.90
5138;DHT22;53959;53.626;11.410;2022-11-20T12:25:02;2.00;99.90
5138;DHT22;53959;53.626;11.410;2022-11-20T12:27:47;1.90;99.90
5138;DHT22;53959;53.626;11.410;2022-11-20T12:30:17;1.90;99.90
5138;DHT22;53959;53.626;11.410;2022-11-20T12:38:26;1.90;99.90
5138;DHT22;53959;53.626;11.410;2022-11-20T12:44:19;2.00;99.90
5138;DHT22;53959;53.626;11.410;2022-11-20T12:47:31;2.10;99.90
5138;DHT22;53959;53.626;11.410;2022-11-20T12:52:56;2.10;99.90
5138;DHT22;53959;53.626;11.410;2022-11-20T12:58:10;2.30;99.90
5138;DHT22;53959;53.626;11.410;2022-11-20T13:00:40;2.10;99.90
5138;DHT22;53959;53.626;11.410;2022-11-20T13:05:43;2.30;99.90
5138;DHT22;53959;53.626;11.410;2022-11-20T13:08:22;2.20;99.90
5138;DHT22;53959;53.626;11.410;2022-11-20T13:13:40;2.20;99.90
5138;DHT22;53959;53.626;11.410;2022-11-20T13:16:16;2.10;99.90
5138;DHT22;53959;53.626;11.410;2022-11-20T13:18:44;2.20;99.90
5138;DHT22;53959;53.626;11.410;2022-11-20T13:21:21;2.20;99.90
5138;DHT22;53959;53.626;11.410;2022-11-20T13:23:47;2.00;99.90
5138;DHT22;53959;53.626;11.410;2022-11-20T13:26:22;1.90;99.90
5138;DHT22;53959;53.626;11.410;2022-11-20T13:29:04;1.90;99.90
5138;DHT22;53959;53.626;11.410;2022-11-20T13:31:34;1.80;99.90
5138;DHT22;53959;53.626;11.410;2022-11-20T13:34:04;1.70;99.90
5138;DHT22;53959;53.626;11.410;2022-11-20T13:36:31;1.70;99.90
5138;DHT22;53959;53.626;11.410;2022-11-20T13:38:57;1.60;99.90
5138;DHT22;53959;53.626;11.410;2022-11-20T13:41:29;1.60;99.90
5138;DHT22;53959;53.626;11.410;2022-11-20T13:44:20;1.60;99.90
5138;DHT22;53959;53.626;11.410;2022-11-20T13:46:48;1.60;99.90
5138;DHT22;53959;53.626;11.410;2022-11-20T13:49:39;1.60;99.90
5138;DHT22;53959;53.626;11.410;2022-11-20T14:01:23;1.30;99.90
5138;DHT22;53959;53.626;11.410;2022-11-20T14:03:48;1.30;99.90
5138;DHT22;53959;53.626;11.410;2022-11-20T14:06:27;1.20;99.90
5138;DHT22;53959;53.626;11.410;2022-11-20T14:08:54;1.30;99.90
5138;DHT22;53959;53.626;11.410;2022-11-20T14:11:33;1.20;99.90
5138;DHT22;53959;53.626;11.410;2022-11-20T14:14:04;1.40;99.90
5138;DHT22;53959;53.626;11.410;2022-11-20T14:16:35;1.20;99.90
5138;DHT22;53959;53.626;11.410;2022-11-20T14:21:48;1.20;99.90
5138;DHT22;53959;53.626;11.410;2022-11-20T14:24:19;1.30;99.90
5138;DHT22;53959;53.626;11.410;2022-11-20T14:26:46;1.40;99.90
5138;DHT22;53959;53.626;11.410;2022-11-20T14:29:29;1.30;99.90
5138;DHT22;53959;53.626;11.410;2022-11-20T14:31:58;1.30;99.90
5138;DHT22;53959;53.626;11.410;2022-11-20T14:34:25;1.30;99.90
5138;DHT22;53959;53.626;11.410;2022-11-20T14:36:59;1.40;99.90
5138;DHT22;53959;53.626;11.410;2022-11-20T14:39:30;1.40;99.90
5138;DHT22;53959;53.626;11.410;2022-11-20T14:41:57;1.40;99.90
5138;DHT22;53959;53.626;11.410;2022-11-20T14:44:29;1.30;99.90
5138;DHT22;53959;53.626;11.410;2022-11-20T14:46:57;1.40;99.90
5138;DHT22;53959;53.626;11.410;2022-11-20T14:49:23;1.40;99.90
5138;DHT22;53959;53.626;11.410;2022-11-20T14:51:59;1.40;99.90
5138;DHT22;53959;53.626;11.410;2022-11-20T14:54:25;1.50;99.90
5138;DHT22;53959;53.626;11.410;2022-11-20T14:57:00;1.50;99.90
5138;DHT22;53959;53.626;11.410;2022-11-20T14:59:29;1.50;99.90
5138;DHT22;53959;53.626;11.410;2022-11-20T15:02:01;1.60;99.90
5138;DHT22;53959;53.626;11.410;2022-11-20T15:04:27;1.50;99.90
5138;DHT22;53959;53.626;11.410;2022-11-20T15:06:55;1.40;99.90
5138;DHT22;53959;53.626;11.410;2022-11-20T15:09:21;1.40;99.90
5138;DHT22;53959;53.626;11.410;2022-11-20T15:11:58;1.40;99.90
5138;DHT22;53959;53.626;11.410;2022-11-20T15:14:25;1.50;99.90
5138;DHT22;53959;53.626;11.410;2022-11-20T15:16:52;1.40;99.90
5138;DHT22;53959;53.626;11.410;2022-11-20T15:19:25;1.40;99.90
5138;DHT22;53959;53.626;11.410;2022-11-20T15:21:52;1.40;99.90
5138;DHT22;53959;53.626;11.410;2022-11-20T15:24:17;1.30;99.90
5138;DHT22;53959;53.626;11.410;2022-11-20T15:26:43;1.40;99.90
5138;DHT22;53959;53.626;11.410;2022-11-20T15:29:14;1.40;99.90
5138;DHT22;53959;53.626;11.410;2022-11-20T15:31:43;1.40;99.90
5138;DHT22;53959;53.626;11.410;2022-11-20T15:34:14;1.30;99.90
5138;DHT22;53959;53.626;11.410;2022-11-20T15:36:41;1.40;99.90
5138;DHT22;53959;53.626;11.410;2022-11-20T15:39:08;1.40;99.90
5138;DHT22;53959;53.626;11.410;2022-11-20T15:41:35;1.40;99.90
5138;DHT22;53959;53.626;11.410;2022-11-20T15:44:01;1.50;99.90
5138;DHT22;53959;53.626;11.410;2022-11-20T15:46:29;1.40;99.90
5138;DHT22;53959;53.626;11.410;2022-11-20T15:48:56;1.50;99.90
5138;DHT22;53959;53.626;11.410;2022-11-20T15:51:39;1.40;99.90
5138;DHT22;53959;53.626;11.410;2022-11-20T15:54:11;1.50;99.90
5138;DHT22;53959;53.626;11.410;2022-11-20T15:56:37;1.50;99.90
5138;DHT22;53959;53.626;11.410;2022-11-20T15:59:03;1.40;99.90
5138;DHT22;53959;53.626;11.410;2022-11-20T16:01:28;1.40;99.90
5138;DHT22;53959;53.626;11.410;2022-11-20T16:03:54;1.50;99.90
5138;DHT22;53959;53.626;11.410;2022-11-20T16:06:19;1.50;99.90
5138;DHT22;53959;53.626;11.410;2022-11-20T16:08:45;1.30;99.90
5138;DHT22;53959;53.626;11.410;2022-11-20T16:11:12;1.30;99.90
5138;DHT22;53959;53.626;11.410;2022-11-20T16:13:38;1.30;99.90
5138;DHT22;53959;53.626;11.410;2022-11-20T16:16:29;1.40;99.90
5138;DHT22;53959;53.626;11.410;2022-11-20T16:18:56;1.30;99.90
5138;DHT22;53959;53.626;11.410;2022-11-20T16:21:22;1.20;99.90
5138;DHT22;53959;53.626;11.410;2022-11-20T16:24:01;1.20;99.90
5138;DHT22;53959;53.626;11.410;2022-11-20T16:26:28;1.20;99.90
5138;DHT22;53959;53.626;11.410;2022-11-20T16:28:54;1.00;99.90
5138;DHT22;53959;53.626;11.410;2022-11-20T16:31:20;1.10;99.90
5138;DHT22;53959;53.626;11.410;2022-11-20T16:33:54;1.00;99.90
5138;DHT22;53959;53.626;11.410;2022-11-20T16:36:21;0.90;99.90
5138;DHT22;53959;53.626;11.410;2022-11-20T16:38:49;0.90;99.90
5138;DHT22;53959;53.626;11.410;2022-11-20T16:41:16;0.90;99.90
5138;DHT22;53959;53.626;11.410;2022-11-20T16:43:47;0.80;99.90
5138;DHT22;53959;53.626;11.410;2022-11-20T16:46:21;0.70;99.90
5138;DHT22;53959;53.626;11.410;2022-11-20T16:48:53;0.80;99.90
5138;DHT22;53959;53.626;11.410;2022-11-20T16:51:19;0.70;99.90
5138;DHT22;53959;53.626;11.410;2022-11-20T16:53:44;0.80;99.90
5138;DHT22;53959;53.626;11.410;2022-11-20T16:56:12;0.80;99.90
5138;DHT22;53959;53.626;11.410;2022-11-20T16:58:38;0.80;99.90
5138;DHT22;53959;53.626;11.410;2022-11-20T17:01:08;0.80;99.90
5138;DHT22;53959;53.626;11.410;2022-11-20T17:03:39;0.80;99.90
5138;DHT22;53959;53.626;11.410;2022-11-20T17:06:19;0.90;99.90